Time;durP1;ratioP1;P1;durP2;ratioP2;P2;SDS_P1;SDS_P2;PMS_P1;PMS_P2;Temp;Humidity;BMP_temperature;BMP_pressure;BME280_temperature;BME280_humidity;BME280_pressure;Samples;Min_cycle;Max_cycle;Signal;HPM_P1;HPM_P2
2023/07/18 00:01:59;;;;;;;;;;;;;;;17.01;64.69;97064.91;5106231;28;20132;-72
2023/07/18 00:04:28;;;;;;;;;;;;;;;16.96;65.53;97064.81;5106816;28;19965;-72
2023/07/18 00:06:54;;;;;;;;;;;;;;;16.90;64.58;97065.78;5107292;28;19944;-72
2023/07/18 00:09:21;;;;;;;;;;;;;;;16.84;64.65;97067.59;5107715;28;19935;-72
2023/07/18 00:11:47;;;;;;;;;;;;;;;16.79;64.84;97067.47;5107140;28;19933;-70
2023/07/18 00:14:14;;;;;;;;;;;;;;;16.75;65.24;97063.69;5105902;28;19954;-72
2023/07/18 00:16:41;;;;;;;;;;;;;;;16.72;65.36;97072.13;5107736;28;19946;-72
2023/07/18 00:19:09;;;;;;;;;;;;;;;16.68;65.53;97077.09;5107038;28;19971;-72
2023/07/18 00:21:36;;;;;;;;;;;;;;;16.66;65.56;97075.75;5107613;28;19941;-73
2023/07/18 00:24:02;;;;;;;;;;;;;;;16.60;65.38;97072.19;5106978;28;20262;-72
2023/07/18 00:26:28;;;;;;;;;;;;;;;16.58;66.01;97076.94;5089060;28;19943;-72
2023/07/18 00:28:54;;;;;;;;;;;;;;;16.54;65.51;97076.59;5107511;28;20004;-71
2023/07/18 00:31:21;;;;;;;;;;;;;;;16.49;66.15;97068.59;5107711;28;19936;-70
2023/07/18 00:33:47;;;;;;;;;;;;;;;16.46;66.23;97077.00;5107669;28;20103;-78
2023/07/18 00:36:13;;;;;;;;;;;;;;;16.42;66.42;97078.50;5106256;28;19942;-78
2023/07/18 00:38:39;;;;;;;;;;;;;;;16.37;66.97;97073.94;5105679;28;19937;-77
2023/07/18 00:41:05;;;;;;;;;;;;;;;16.34;66.45;97071.78;5106908;28;19942;-78
2023/07/18 00:43:32;;;;;;;;;;;;;;;16.32;66.83;97068.56;5106492;28;20136;-78
2023/07/18 00:45:59;;;;;;;;;;;;;;;16.30;67.05;97067.22;5105409;28;19935;-78
2023/07/18 00:48:29;;;;;;;;;;;;;;;16.27;67.70;97057.88;5106796;28;19942;-71
2023/07/18 00:51:13;;;;;;;;;;;;;;;16.24;67.74;97053.88;5106522;28;19938;-72
2023/07/18 00:53:40;;;;;;;;;;;;;;;16.21;67.51;97054.38;5106414;28;19934;-73
2023/07/18 00:56:06;;;;;;;;;;;;;;;16.16;68.71;97046.31;5106932;28;19975;-72
2023/07/18 00:58:32;;;;;;;;;;;;;;;16.13;67.65;97051.31;5106811;28;20232;-71
2023/07/18 01:00:59;;;;;;;;;;;;;;;16.10;67.88;97042.00;5106281;28;20178;-72
2023/07/18 01:03:25;;;;;;;;;;;;;;;16.09;68.30;97039.59;5106678;28;19941;-72
2023/07/18 01:05:50;;;;;;;;;;;;;;;16.05;68.25;97041.13;5106143;28;19959;-71
2023/07/18 01:08:16;;;;;;;;;;;;;;;16.01;69.17;97043.44;5104962;28;19946;-77
2023/07/18 01:10:42;;;;;;;;;;;;;;;15.97;69.08;97039.66;5106100;28;19977;-75
2023/07/18 01:13:08;;;;;;;;;;;;;;;15.96;69.26;97044.16;5088788;28;19935;-75
2023/07/18 01:15:34;;;;;;;;;;;;;;;15.94;69.39;97042.78;5106570;28;19956;-75
2023/07/18 01:18:06;;;;;;;;;;;;;;;15.90;69.79;97037.16;5106251;28;19960;-75
2023/07/18 01:20:33;;;;;;;;;;;;;;;15.86;69.64;97030.72;5106492;28;19941;-75
2023/07/18 01:22:59;;;;;;;;;;;;;;;15.83;70.19;97036.47;5105913;28;20129;-75
2023/07/18 01:25:26;;;;;;;;;;;;;;;15.80;70.57;97044.91;5106305;28;19951;-76
2023/07/18 01:27:54;;;;;;;;;;;;;;;15.76;70.61;97039.28;5104667;28;19936;-72
2023/07/18 01:30:21;;;;;;;;;;;;;;;15.68;70.54;97038.81;5104543;28;19950;-72
2023/07/18 01:32:52;;;;;;;;;;;;;;;15.65;70.46;97041.94;5105746;28;19940;-72
2023/07/18 01:35:19;;;;;;;;;;;;;;;15.61;71.16;97042.41;5106480;28;19930;-72
2023/07/18 01:37:46;;;;;;;;;;;;;;;15.59;71.50;97041.03;5105719;28;19944;-72
2023/07/18 01:40:14;;;;;;;;;;;;;;;15.55;71.48;97039.91;5105600;28;19932;-72
2023/07/18 01:42:40;;;;;;;;;;;;;;;15.52;71.27;97043.03;5105588;28;19931;-72
2023/07/18 01:45:06;;;;;;;;;;;;;;;15.51;70.32;97036.13;5106224;28;19953;-69
2023/07/18 01:47:32;;;;;;;;;;;;;;;15.51;70.73;97036.91;5105649;28;20133;-69
2023/07/18 01:49:59;;;;;;;;;;;;;;;15.51;71.61;97033.47;5105895;28;20101;-69
2023/07/18 01:52:28;;;;;;;;;;;;;;;15.49;71.63;97038.97;5106142;28;19939;-69
2023/07/18 01:54:58;;;;;;;;;;;;;;;15.47;72.03;97035.78;5105522;28;19931;-69
2023/07/18 01:57:39;;;;;;;;;;;;;;;15.42;72.37;97033.84;5104980;28;19949;-69
2023/07/18 02:00:27;;;;;;;;;;;;;;;15.37;72.11;97025.81;5105218;28;19936;-69
2023/07/18 02:02:53;;;;;;;;;;;;;;;15.34;72.76;97028.13;5105487;28;20100;-70
2023/07/18 02:05:20;;;;;;;;;;;;;;;15.30;72.73;97026.97;5104542;28;19955;-70
2023/07/18 02:07:47;;;;;;;;;;;;;;;15.26;72.85;97023.19;5105000;28;19933;-70
2023/07/18 02:10:19;;;;;;;;;;;;;;;15.21;73.28;97021.25;5104948;28;19936;-72
2023/07/18 02:12:45;;;;;;;;;;;;;;;15.16;72.94;97023.78;5086943;28;20044;-70
2023/07/18 02:15:13;;;;;;;;;;;;;;;15.13;73.44;97027.69;5086951;28;19936;-70
2023/07/18 02:17:39;;;;;;;;;;;;;;;15.09;74.13;97034.47;5104752;28;19958;-70
2023/07/18 02:20:05;;;;;;;;;;;;;;;15.05;74.29;97035.19;5105705;28;20145;-76
2023/07/18 02:22:34;;;;;;;;;;;;;;;15.04;74.38;97041.50;5105082;28;19932;-71
2023/07/18 02:25:03;;;;;;;;;;;;;;;15.02;74.49;97036.44;5105531;28;19950;-78
2023/07/18 02:27:30;;;;;;;;;;;;;;;15.01;74.83;97034.81;5104399;28;20105;-79
2023/07/18 02:29:56;;;;;;;;;;;;;;;14.98;74.37;97028.16;5104664;28;19938;-79
2023/07/18 02:32:22;;;;;;;;;;;;;;;14.97;74.49;97026.59;5105489;28;20221;-79
2023/07/18 02:34:48;;;;;;;;;;;;;;;14.95;74.45;97027.81;5104115;28;19967;-78
2023/07/18 02:37:14;;;;;;;;;;;;;;;14.91;75.23;97027.50;5105077;28;19940;-79
2023/07/18 02:39:43;;;;;;;;;;;;;;;14.90;74.63;97025.09;5105431;28;19948;-71
2023/07/18 02:42:09;;;;;;;;;;;;;;;14.86;74.58;97027.38;5104567;28;19934;-76
2023/07/18 02:44:36;;;;;;;;;;;;;;;14.84;74.96;97021.53;5104320;28;19953;-77
2023/07/18 02:47:02;;;;;;;;;;;;;;;14.81;75.58;97020.16;5104178;28;19941;-76
2023/07/18 02:49:28;;;;;;;;;;;;;;;14.80;75.59;97025.66;5104972;28;19942;-76
2023/07/18 02:51:54;;;;;;;;;;;;;;;14.78;75.25;97015.34;5104405;28;19937;-76
2023/07/18 02:54:20;;;;;;;;;;;;;;;14.75;74.66;97012.34;5104127;28;19941;-77
2023/07/18 02:56:46;;;;;;;;;;;;;;;14.73;75.20;97009.94;5105143;28;19957;-70
2023/07/18 02:59:11;;;;;;;;;;;;;;;14.70;75.86;97018.31;5104913;28;19934;-76
2023/07/18 03:01:38;;;;;;;;;;;;;;;14.68;75.59;97011.66;5104373;28;19934;-71
2023/07/18 03:04:05;;;;;;;;;;;;;;;14.67;75.45;97008.22;5104722;28;20203;-71
2023/07/18 03:06:30;;;;;;;;;;;;;;;14.64;76.13;97013.97;5105058;28;20105;-71
2023/07/18 03:08:56;;;;;;;;;;;;;;;14.60;75.41;97004.91;5106899;28;19940;-71
2023/07/18 03:11:22;;;;;;;;;;;;;;;14.56;75.66;97001.09;5108453;28;19975;-71
2023/07/18 03:13:48;;;;;;;;;;;;;;;14.51;77.16;97000.94;5108458;28;19939;-72
2023/07/18 03:16:14;;;;;;;;;;;;;;;14.50;76.24;97002.00;5108418;28;19929;-69
2023/07/18 03:18:40;;;;;;;;;;;;;;;14.49;76.94;97016.19;5108195;28;19962;-71
2023/07/18 03:21:06;;;;;;;;;;;;;;;14.48;76.55;97010.13;5107248;28;19937;-72
2023/07/18 03:23:32;;;;;;;;;;;;;;;14.49;77.33;97005.66;5109071;28;19949;-71
2023/07/18 03:25:57;;;;;;;;;;;;;;;14.48;76.96;97011.97;5107615;28;19960;-72
2023/07/18 03:28:23;;;;;;;;;;;;;;;14.47;77.22;97015.63;5108953;28;19935;-72
2023/07/18 03:30:49;;;;;;;;;;;;;;;14.45;77.29;97013.25;5108644;28;19935;-71
2023/07/18 03:33:15;;;;;;;;;;;;;;;14.45;77.55;97010.59;5108587;28;20219;-72
2023/07/18 03:35:41;;;;;;;;;;;;;;;14.44;77.67;97003.69;5108136;28;19939;-75
2023/07/18 03:38:06;;;;;;;;;;;;;;;14.44;77.94;97013.47;5108779;28;19935;-80
2023/07/18 03:40:32;;;;;;;;;;;;;;;14.41;78.29;97010.25;5107967;28;19944;-80
2023/07/18 03:42:58;;;;;;;;;;;;;;;14.41;78.54;97009.44;5107550;28;19945;-80
2023/07/18 03:45:24;;;;;;;;;;;;;;;14.41;78.15;97004.16;5107328;28;19956;-81
2023/07/18 03:47:50;;;;;;;;;;;;;;;14.42;77.94;97008.41;5106433;28;20223;-80
2023/07/18 03:50:17;;;;;;;;;;;;;;;14.41;77.87;97012.88;5106473;28;19939;-81
2023/07/18 03:52:43;;;;;;;;;;;;;;;14.38;76.93;97010.72;5107236;28;19943;-69
2023/07/18 03:55:09;;;;;;;;;;;;;;;14.37;77.98;97017.00;5106264;28;19961;-71
2023/07/18 03:57:34;;;;;;;;;;;;;;;14.37;78.58;97010.94;5107230;28;20285;-70
2023/07/18 04:00:04;;;;;;;;;;;;;;;14.35;78.87;97013.78;5108088;28;19932;-70
2023/07/18 04:02:32;;;;;;;;;;;;;;;14.36;78.62;97009.31;5108386;28;19941;-70
2023/07/18 04:04:58;;;;;;;;;;;;;;;14.38;78.73;97012.53;5107664;28;19957;-70
2023/07/18 04:07:24;;;;;;;;;;;;;;;14.37;79.21;97003.00;5107379;28;20249;-70
2023/07/18 04:09:50;;;;;;;;;;;;;;;14.37;78.88;97000.38;5107772;28;19963;-70
2023/07/18 04:12:17;;;;;;;;;;;;;;;14.36;78.44;97002.22;5107087;28;20221;-76
2023/07/18 04:14:43;;;;;;;;;;;;;;;14.35;79.12;96997.16;5107889;28;19960;-72
2023/07/18 04:17:09;;;;;;;;;;;;;;;14.33;79.30;96997.38;5107804;28;20200;-72
2023/07/18 04:19:35;;;;;;;;;;;;;;;14.33;79.47;96999.22;5107400;28;19943;-71
2023/07/18 04:22:02;;;;;;;;;;;;;;;14.31;78.95;96991.53;5107795;28;19940;-71
2023/07/18 04:24:29;;;;;;;;;;;;;;;14.32;79.61;96990.50;5107717;28;19939;-72
2023/07/18 04:26:55;;;;;;;;;;;;;;;14.33;79.77;96996.59;5106963;28;20124;-71
2023/07/18 04:29:21;;;;;;;;;;;;;;;14.35;79.53;96992.69;5107481;28;19970;-76
2023/07/18 04:31:47;;;;;;;;;;;;;;;14.37;79.63;96985.34;5107700;28;19938;-75
2023/07/18 04:34:15;;;;;;;;;;;;;;;14.41;79.22;96989.13;5106681;28;20123;-71
2023/07/18 04:36:42;;;;;;;;;;;;;;;14.46;79.47;96985.00;5107460;28;20225;-71
2023/07/18 04:39:08;;;;;;;;;;;;;;;14.50;79.11;96983.50;5107561;28;20164;-71
2023/07/18 04:41:34;;;;;;;;;;;;;;;14.56;79.39;96987.91;5107574;28;20109;-71
2023/07/18 04:44:00;;;;;;;;;;;;;;;14.63;79.88;96987.78;5105665;28;19938;-71
2023/07/18 04:46:26;;;;;;;;;;;;;;;14.70;79.13;96977.91;5107096;28;19955;-71
2023/07/18 04:48:52;;;;;;;;;;;;;;;14.77;79.17;96979.41;5107513;28;19937;-72
2023/07/18 04:51:18;;;;;;;;;;;;;;;14.85;78.85;96977.44;5106587;28;19933;-71
2023/07/18 04:53:44;;;;;;;;;;;;;;;14.93;79.58;96977.06;5107049;28;19944;-70
2023/07/18 04:56:10;;;;;;;;;;;;;;;15.02;79.05;96980.97;5106333;28;19960;-71
2023/07/18 04:58:35;;;;;;;;;;;;;;;15.11;78.42;96974.28;5107091;28;19939;-70
2023/07/18 05:01:02;;;;;;;;;;;;;;;15.20;78.11;96972.91;5107155;28;20147;-71
2023/07/18 05:03:28;;;;;;;;;;;;;;;15.30;77.75;96980.22;5106426;28;20116;-71
2023/07/18 05:05:55;;;;;;;;;;;;;;;15.38;77.53;96963.97;5107028;28;20012;-72
2023/07/18 05:08:21;;;;;;;;;;;;;;;15.49;77.93;96972.91;5106090;28;20264;-69
2023/07/18 05:10:47;;;;;;;;;;;;;;;15.61;77.64;96964.94;5106760;28;19944;-71
2023/07/18 05:13:13;;;;;;;;;;;;;;;15.74;77.62;96955.94;5106167;28;19931;-71
2023/07/18 05:15:42;;;;;;;;;;;;;;;15.86;76.70;96948.75;5106621;28;19944;-71
2023/07/18 05:18:09;;;;;;;;;;;;;;;16.02;76.37;96953.25;5105853;28;19962;-71
2023/07/18 05:20:35;;;;;;;;;;;;;;;16.19;75.75;96947.13;5105983;28;20241;-71
2023/07/18 05:23:01;;;;;;;;;;;;;;;16.37;75.16;96938.94;5105942;28;19945;-71
2023/07/18 05:25:27;;;;;;;;;;;;;;;16.61;74.30;96936.13;5106673;28;19986;-69
2023/07/18 05:27:53;;;;;;;;;;;;;;;16.83;74.22;96936.16;5105850;28;19941;-72
2023/07/18 05:30:20;;;;;;;;;;;;;;;17.07;73.28;96928.75;5104891;28;19940;-72
2023/07/18 05:32:46;;;;;;;;;;;;;;;17.33;72.76;96921.09;5105619;28;19945;-72
2023/07/18 05:35:15;;;;;;;;;;;;;;;17.55;71.84;96915.75;5105680;28;19939;-71
2023/07/18 05:37:42;;;;;;;;;;;;;;;17.76;71.10;96906.13;5105566;28;19940;-72
2023/07/18 05:40:11;;;;;;;;;;;;;;;17.96;70.29;96903.66;5106170;28;19931;-72
2023/07/18 05:42:37;;;;;;;;;;;;;;;18.15;70.15;96898.78;5105835;28;20184;-78
2023/07/18 05:45:04;;;;;;;;;;;;;;;18.34;69.05;96895.72;5087393;28;19954;-72
2023/07/18 05:47:30;;;;;;;;;;;;;;;18.49;67.77;96887.03;5106007;28;19937;-70
2023/07/18 05:49:56;;;;;;;;;;;;;;;18.65;68.02;96884.19;5104379;28;20214;-71
2023/07/18 05:52:21;;;;;;;;;;;;;;;18.80;67.49;96875.50;5105359;28;19931;-71
2023/07/18 05:54:47;;;;;;;;;;;;;;;18.94;67.65;96875.03;5105364;28;19942;-72
2023/07/18 05:57:13;;;;;;;;;;;;;;;19.12;66.65;96869.22;5105197;28;19957;-71
2023/07/18 05:59:39;;;;;;;;;;;;;;;19.20;66.02;96871.38;5105678;28;19931;-71
2023/07/18 06:02:05;;;;;;;;;;;;;;;19.39;66.42;96869.03;5105218;28;19940;-69
2023/07/18 06:04:31;;;;;;;;;;;;;;;19.54;65.70;96854.94;5105083;28;20283;-70
2023/07/18 06:06:57;;;;;;;;;;;;;;;19.73;65.05;96849.91;5105128;28;19942;-70
2023/07/18 06:09:22;;;;;;;;;;;;;;;19.97;65.47;96858.16;5104955;28;19939;-70
2023/07/18 06:11:50;;;;;;;;;;;;;;;20.19;64.66;96851.75;5105856;28;19942;-70
2023/07/18 06:14:16;;;;;;;;;;;;;;;20.43;63.51;96839.44;5105181;28;19934;-71
2023/07/18 06:16:41;;;;;;;;;;;;;;;20.62;62.23;96831.66;5105058;28;19942;-70
2023/07/18 06:19:07;;;;;;;;;;;;;;;20.82;61.91;96833.44;5104754;28;20171;-72
2023/07/18 06:21:34;;;;;;;;;;;;;;;21.01;60.90;96836.28;5105339;28;19936;-72
2023/07/18 06:24:00;;;;;;;;;;;;;;;21.09;60.46;96829.56;5104309;28;19937;-70
2023/07/18 06:26:26;;;;;;;;;;;;;;;21.13;59.84;96838.63;5104660;28;19950;-70
2023/07/18 06:28:52;;;;;;;;;;;;;;;21.16;59.37;96842.59;5104712;28;19941;-70
2023/07/18 06:31:18;;;;;;;;;;;;;;;21.22;58.87;96844.16;5105146;28;19940;-70
2023/07/18 06:33:45;;;;;;;;;;;;;;;21.14;58.92;96834.06;5104707;28;19939;-69
2023/07/18 06:36:12;;;;;;;;;;;;;;;21.16;59.60;96839.94;5105458;28;19956;-69
2023/07/18 06:38:38;;;;;;;;;;;;;;;21.28;60.10;96840.38;5105413;28;19934;-69
2023/07/18 06:41:04;;;;;;;;;;;;;;;21.43;59.14;96834.97;5103551;28;19936;-75
2023/07/18 06:43:32;;;;;;;;;;;;;;;21.49;59.64;96843.75;5104459;28;19946;-75
2023/07/18 06:45:58;;;;;;;;;;;;;;;21.64;58.95;96838.28;5104435;28;19953;-74
2023/07/18 06:48:24;;;;;;;;;;;;;;;21.65;57.08;96826.53;5104476;28;20000;-75
2023/07/18 06:50:51;;;;;;;;;;;;;;;21.75;58.94;96835.53;5105201;28;19932;-74
2023/07/18 06:53:18;;;;;;;;;;;;;;;21.99;58.70;96830.25;5104407;28;19939;-75
2023/07/18 06:55:46;;;;;;;;;;;;;;;22.13;57.16;96825.81;5104333;28;20102;-71
2023/07/18 06:58:12;;;;;;;;;;;;;;;22.35;56.16;96825.38;5105127;28;20212;-72
2023/07/18 07:00:38;;;;;;;;;;;;;;;22.54;56.67;96820.06;5104077;28;20108;-71
2023/07/18 07:03:04;;;;;;;;;;;;;;;22.71;55.32;96814.25;5104298;28;20226;-72
2023/07/18 07:05:30;;;;;;;;;;;;;;;22.84;56.00;96821.56;5104844;28;19985;-72
2023/07/18 07:07:56;;;;;;;;;;;;;;;22.96;55.44;96815.00;5104308;28;19953;-72
2023/07/18 07:10:22;;;;;;;;;;;;;;;23.10;55.04;96811.34;5104216;28;19961;-71
2023/07/18 07:12:48;;;;;;;;;;;;;;;23.24;53.43;96806.03;5104970;28;20125;-72
2023/07/18 07:15:14;;;;;;;;;;;;;;;23.28;53.09;96800.91;5104803;28;19939;-70
2023/07/18 07:17:40;;;;;;;;;;;;;;;23.22;51.72;96794.06;5104169;28;19967;-76
2023/07/18 07:20:06;;;;;;;;;;;;;;;23.19;52.25;96792.75;5104122;28;19940;-78
2023/07/18 07:22:32;;;;;;;;;;;;;;;23.34;53.42;96805.09;5102959;28;19947;-77
2023/07/18 07:24:58;;;;;;;;;;;;;;;23.48;54.08;96805.16;5104556;28;19933;-77
2023/07/18 07:27:24;;;;;;;;;;;;;;;23.59;53.15;96800.44;5104614;28;19967;-77
2023/07/18 07:29:51;;;;;;;;;;;;;;;23.54;50.68;96787.94;5104838;28;20160;-77
2023/07/18 07:32:17;;;;;;;;;;;;;;;23.60;52.67;96792.13;5103976;28;19933;-78
2023/07/18 07:34:43;;;;;;;;;;;;;;;23.71;52.30;96788.19;5104015;28;20216;-72
2023/07/18 07:37:10;;;;;;;;;;;;;;;23.74;51.58;96775.28;5104563;28;20109;-71
2023/07/18 07:39:36;;;;;;;;;;;;;;;23.59;51.63;96784.38;5103465;28;19944;-72
2023/07/18 07:42:02;;;;;;;;;;;;;;;23.59;52.04;96782.50;5104529;28;19965;-72
2023/07/18 07:44:27;;;;;;;;;;;;;;;23.60;50.53;96772.56;5103897;28;19941;-72
2023/07/18 07:46:54;;;;;;;;;;;;;;;23.60;51.80;96777.91;5104607;28;20146;-72
2023/07/18 07:49:20;;;;;;;;;;;;;;;23.74;53.40;96778.75;5104332;28;19951;-74
2023/07/18 07:51:46;;;;;;;;;;;;;;;23.89;52.06;96772.34;5103732;28;19937;-73
2023/07/18 07:54:12;;;;;;;;;;;;;;;24.05;51.21;96773.66;5103849;28;20233;-77
2023/07/18 08:03:22;;;;;;;;;;;;;;;24.25;50.13;96750.25;5114336;28;19937;-79
2023/07/18 08:05:48;;;;;;;;;;;;;;;24.34;49.58;96753.84;5089828;28;19954;-81
2023/07/18 08:08:14;;;;;;;;;;;;;;;24.50;49.90;96757.00;5108142;28;20133;-80
2023/07/18 08:10:40;;;;;;;;;;;;;;;24.63;47.24;96737.44;5106994;28;19944;-81
2023/07/18 08:13:06;;;;;;;;;;;;;;;24.69;46.98;96744.28;5089224;28;19936;-72
2023/07/18 08:15:32;;;;;;;;;;;;;;;24.78;49.01;96740.84;5106155;28;19984;-71
2023/07/18 08:17:58;;;;;;;;;;;;;;;24.92;47.64;96750.47;5107332;28;19985;-71
2023/07/18 08:20:23;;;;;;;;;;;;;;;25.10;47.41;96750.59;5105975;28;20288;-71
2023/07/18 08:22:49;;;;;;;;;;;;;;;25.16;44.62;96738.66;5106511;28;19934;-71
2023/07/18 08:25:16;;;;;;;;;;;;;;;25.14;43.16;96742.75;5107029;28;19944;-73
2023/07/18 08:27:42;;;;;;;;;;;;;;;25.14;44.29;96750.81;5107530;28;19956;-72
2023/07/18 08:30:08;;;;;;;;;;;;;;;25.14;46.31;96748.91;5106944;28;20231;-73
2023/07/18 08:32:34;;;;;;;;;;;;;;;25.11;44.08;96754.88;5106860;28;20008;-72
2023/07/18 08:35:00;;;;;;;;;;;;;;;25.06;42.62;96746.94;5105738;28;19964;-72
2023/07/18 08:37:25;;;;;;;;;;;;;;;25.17;45.77;96758.22;5106757;28;19935;-72
2023/07/18 08:39:51;;;;;;;;;;;;;;;25.25;45.13;96747.59;5106236;28;19986;-72
2023/07/18 08:42:19;;;;;;;;;;;;;;;25.33;41.98;96743.38;5106328;28;19943;-72
2023/07/18 08:44:45;;;;;;;;;;;;;;;25.29;40.52;96739.72;5106674;28;20127;-74
2023/07/18 08:47:12;;;;;;;;;;;;;;;25.25;43.57;96752.94;5105368;28;20246;-78
2023/07/18 08:49:39;;;;;;;;;;;;;;;25.21;41.81;96751.97;5089300;28;19949;-78
2023/07/18 08:52:05;;;;;;;;;;;;;;;25.37;43.46;96752.41;5088491;28;19949;-80
2023/07/18 08:54:31;;;;;;;;;;;;;;;25.52;44.02;96745.88;5106360;28;19974;-78
2023/07/18 08:56:57;;;;;;;;;;;;;;;25.71;43.18;96743.75;5088388;28;19962;-79
2023/07/18 08:59:23;;;;;;;;;;;;;;;25.72;40.38;96736.47;5088390;28;19951;-83
2023/07/18 09:01:50;;;;;;;;;;;;;;;25.69;42.19;96737.09;5088226;28;19942;-83
2023/07/18 09:04:16;;;;;;;;;;;;;;;25.77;41.58;96732.88;5105421;28;19939;-78
2023/07/18 09:06:49;;;;;;;;;;;;;;;25.83;43.39;96737.00;5103866;28;20029;-72
2023/07/18 09:09:17;;;;;;;;;;;;;;;25.97;43.64;96724.28;5088929;28;19945;-78
2023/07/18 09:11:52;;;;;;;;;;;;;;;26.11;42.05;96716.91;5104943;28;19936;-79
2023/07/18 09:14:25;;;;;;;;;;;;;;;26.19;42.93;96723.44;5088847;28;19967;-79
2023/07/18 09:16:52;;;;;;;;;;;;;;;26.20;40.59;96716.94;5087993;28;19945;-79
2023/07/18 09:19:18;;;;;;;;;;;;;;;26.23;41.31;96723.59;5104767;28;19968;-78
2023/07/18 09:21:44;;;;;;;;;;;;;;;26.24;42.76;96723.28;5104759;28;19943;-79
2023/07/18 09:24:09;;;;;;;;;;;;;;;26.35;41.74;96726.47;5087859;28;19950;-73
2023/07/18 09:26:38;;;;;;;;;;;;;;;26.41;41.44;96729.81;5105356;28;20467;-71
2023/07/18 09:29:11;;;;;;;;;;;;;;;26.44;42.11;96723.81;5105371;28;20217;-73
2023/07/18 09:31:36;;;;;;;;;;;;;;;26.47;41.67;96731.25;5106003;28;19932;-72
2023/07/18 09:34:09;;;;;;;;;;;;;;;26.48;42.18;96735.50;5105493;28;19937;-72
2023/07/18 09:36:35;;;;;;;;;;;;;;;26.41;41.32;96735.97;5106404;28;19940;-72
2023/07/18 09:39:02;;;;;;;;;;;;;;;26.48;41.86;96732.81;5105565;28;19938;-72
2023/07/18 09:41:28;;;;;;;;;;;;;;;26.56;40.17;96733.94;5106043;28;19959;-72
2023/07/18 09:43:54;;;;;;;;;;;;;;;26.61;42.45;96756.13;5105543;28;20151;-73
2023/07/18 09:46:20;;;;;;;;;;;;;;;26.72;41.86;96759.31;5105612;28;19986;-72
2023/07/18 09:48:46;;;;;;;;;;;;;;;26.81;40.43;96767.41;5105375;28;19953;-75
2023/07/18 09:51:16;;;;;;;;;;;;;;;26.82;41.58;96788.63;5104279;28;20216;-74
2023/07/18 09:53:44;;;;;;;;;;;;;;;26.80;40.96;96806.97;5087249;28;19945;-74
2023/07/18 09:56:10;;;;;;;;;;;;;;;26.69;41.90;96803.78;5105176;28;19949;-74
2023/07/18 09:58:39;;;;;;;;;;;;;;;26.51;41.33;96812.88;5105191;28;19941;-74
2023/07/18 10:01:08;;;;;;;;;;;;;;;26.32;42.65;96810.44;5104052;28;20107;-79
2023/07/18 10:03:35;;;;;;;;;;;;;;;26.18;41.24;96789.03;5104569;28;19934;-78
2023/07/18 10:06:02;;;;;;;;;;;;;;;26.01;43.22;96770.16;5103984;28;20173;-79
2023/07/18 10:08:28;;;;;;;;;;;;;;;25.86;44.04;96776.69;5104662;28;20083;-78
2023/07/18 10:11:02;;;;;;;;;;;;;;;25.73;43.95;96779.16;5104619;28;19948;-78
2023/07/18 10:13:29;;;;;;;;;;;;;;;25.58;43.96;96762.66;5105180;28;19938;-79
2023/07/18 10:16:27;;;;;;;;;;;;;;;25.44;43.35;96709.00;5086816;28;20223;-79
2023/07/18 10:18:53;;;;;;;;;;;;;;;25.25;43.82;96601.84;5059814;28;20138;-74
2023/07/18 10:21:29;;;;;;;;;;;;;;;25.16;45.27;96520.47;5105637;28;19946;-72
2023/07/18 10:23:56;;;;;;;;;;;;;;;25.04;43.72;96484.28;5103635;28;19934;-73
2023/07/18 10:26:31;;;;;;;;;;;;;;;24.94;43.51;96518.63;5104615;28;19954;-73
2023/07/18 10:29:01;;;;;;;;;;;;;;;24.91;45.47;96522.75;5103460;28;19937;-72
2023/07/18 10:31:28;;;;;;;;;;;;;;;24.97;45.27;96507.28;5086554;28;19934;-73
2023/07/18 10:34:20;;;;;;;;;;;;;;;25.03;45.80;96496.13;5087225;28;19944;-72
2023/07/18 10:36:53;;;;;;;;;;;;;;;25.18;45.54;96507.53;5101998;28;19949;-73
2023/07/18 10:39:19;;;;;;;;;;;;;;;25.35;46.03;96539.06;5105402;28;19987;-73
2023/07/18 10:41:45;;;;;;;;;;;;;;;25.59;45.28;96568.97;5104540;28;19986;-73
2023/07/18 10:44:12;;;;;;;;;;;;;;;25.90;45.43;96635.28;5104452;28;19965;-73
2023/07/18 10:46:38;;;;;;;;;;;;;;;25.97;42.44;96675.13;5104005;28;19949;-74
2023/07/18 10:49:05;;;;;;;;;;;;;;;25.94;44.17;96703.44;5104386;28;20122;-74
2023/07/18 10:51:32;;;;;;;;;;;;;;;25.97;44.81;96728.88;5105175;28;19938;-74
2023/07/18 10:54:02;;;;;;;;;;;;;;;25.97;44.16;96785.31;5104308;28;19941;-73
2023/07/18 10:56:28;;;;;;;;;;;;;;;25.90;43.84;96807.25;5103803;28;19966;-73
2023/07/18 10:58:57;;;;;;;;;;;;;;;25.80;44.13;96820.91;5104823;28;19934;-72
2023/07/18 11:01:26;;;;;;;;;;;;;;;25.78;46.57;96813.16;5104679;28;19930;-73
2023/07/18 11:03:52;;;;;;;;;;;;;;;25.78;45.71;96828.50;5104229;28;20103;-72
2023/07/18 11:06:21;;;;;;;;;;;;;;;25.73;44.91;96810.59;5103761;28;19959;-72
2023/07/18 11:08:47;;;;;;;;;;;;;;;25.65;44.97;96816.72;5104178;28;20254;-73
2023/07/18 11:11:15;;;;;;;;;;;;;;;25.50;44.64;96807.13;5104150;28;19941;-73
2023/07/18 11:13:44;;;;;;;;;;;;;;;25.30;44.78;96825.31;5103296;28;19942;-80
2023/07/18 11:16:11;;;;;;;;;;;;;;;25.11;45.17;96832.69;5103728;28;19938;-73
2023/07/18 11:18:38;;;;;;;;;;;;;;;24.93;45.74;96834.44;5103043;28;19964;-74
2023/07/18 11:21:05;;;;;;;;;;;;;;;24.75;46.56;96846.06;5103465;28;19941;-73
2023/07/18 11:23:31;;;;;;;;;;;;;;;24.61;47.01;96862.97;5102838;28;20122;-73
2023/07/18 11:25:57;;;;;;;;;;;;;;;24.43;47.33;96894.09;5104470;28;19958;-73
2023/07/18 11:28:32;;;;;;;;;;;;;;;24.27;49.29;96909.69;5103645;28;20008;-74
2023/07/18 11:30:58;;;;;;;;;;;;;;;24.08;51.33;96853.44;5108643;28;19934;-73
2023/07/18 11:33:28;;;;;;;;;;;;;;;23.85;52.68;96803.50;5107957;28;20236;-74
2023/07/18 11:35:54;;;;;;;;;;;;;;;23.61;54.94;96750.88;5107949;28;19949;-81
2023/07/18 11:38:23;;;;;;;;;;;;;;;23.44;58.19;96608.78;5108459;28;19938;-77
2023/07/18 11:40:48;;;;;;;;;;;;;;;23.26;60.51;96631.84;5108468;28;20232;-78
2023/07/18 11:43:18;;;;;;;;;;;;;;;23.20;59.14;96644.50;5106769;28;19938;-77
2023/07/18 11:45:44;;;;;;;;;;;;;;;23.18;61.16;96616.47;5108524;28;19939;-78
2023/07/18 11:48:10;;;;;;;;;;;;;;;23.10;60.61;96613.38;5090485;28;19942;-79
2023/07/18 11:50:36;;;;;;;;;;;;;;;23.05;61.42;96626.03;5107847;28;19934;-77
2023/07/18 11:53:03;;;;;;;;;;;;;;;23.08;64.42;96628.94;5089789;28;20014;-73
2023/07/18 11:55:30;;;;;;;;;;;;;;;23.18;65.62;96617.28;5107367;28;19947;-73
2023/07/18 11:57:57;;;;;;;;;;;;;;;23.26;68.48;96619.25;5089429;28;19953;-73
2023/07/18 12:00:23;;;;;;;;;;;;;;;23.30;67.07;96588.13;5107291;28;19942;-74
2023/07/18 12:02:49;;;;;;;;;;;;;;;23.32;66.59;96582.47;5106366;28;19966;-73
2023/07/18 12:05:15;;;;;;;;;;;;;;;23.30;65.85;96517.75;5107462;28;20245;-73
2023/07/18 12:07:43;;;;;;;;;;;;;;;23.23;67.45;96555.63;5107354;28;19963;-73
2023/07/18 12:10:10;;;;;;;;;;;;;;;23.23;64.75;96552.16;5090170;28;19942;-73
2023/07/18 12:12:36;;;;;;;;;;;;;;;23.27;65.40;96553.16;5106173;28;20219;-73
2023/07/18 12:15:02;;;;;;;;;;;;;;;23.32;64.99;96546.91;5106775;28;19937;-72
2023/07/18 12:17:28;;;;;;;;;;;;;;;23.40;63.21;96520.25;5107658;28;19961;-73
2023/07/18 12:19:54;;;;;;;;;;;;;;;23.47;62.57;96493.06;5090027;28;19986;-73
2023/07/18 12:22:20;;;;;;;;;;;;;;;23.46;60.28;96486.94;5107738;28;19947;-73
2023/07/18 12:24:47;;;;;;;;;;;;;;;23.48;61.98;96475.94;5107131;28;19937;-73
2023/07/18 12:27:14;;;;;;;;;;;;;;;23.51;61.17;96470.75;5106937;28;19959;-75
2023/07/18 12:29:40;;;;;;;;;;;;;;;23.55;62.64;96473.63;5089870;28;19946;-74
2023/07/18 12:32:06;;;;;;;;;;;;;;;23.64;62.60;96471.81;5089733;28;19995;-74
2023/07/18 12:34:31;;;;;;;;;;;;;;;23.77;61.63;96467.56;5105677;28;19944;-73
2023/07/18 12:36:59;;;;;;;;;;;;;;;23.93;61.18;96472.56;5107133;28;20012;-74
2023/07/18 12:39:25;;;;;;;;;;;;;;;24.07;62.89;96494.75;5106818;28;19941;-74
2023/07/18 12:41:50;;;;;;;;;;;;;;;24.17;63.41;96497.19;5106740;28;19937;-73
2023/07/18 12:44:20;;;;;;;;;;;;;;;24.25;59.99;96504.50;5107494;28;20011;-72
2023/07/18 12:46:46;;;;;;;;;;;;;;;24.25;56.94;96490.28;5107091;28;19965;-79
2023/07/18 12:49:12;;;;;;;;;;;;;;;24.21;57.89;96502.72;5089449;28;19944;-73
2023/07/18 12:51:40;;;;;;;;;;;;;;;24.21;60.41;96503.53;5107413;28;19944;-73
2023/07/18 12:54:05;;;;;;;;;;;;;;;24.16;60.28;96502.84;5105517;28;19933;-73